This is the latest recevied weather packets stored in our database for station/object KB3KAV. If no packets are shown the sender has not sent any weather packets the latest 10 day(s).
| Time | Temp. | Humidity | Pressure | Rain* | Wind** | Luminosity | Snow |
|---|---|---|---|---|---|---|---|
| 1787858425 | 29.44° C | 61% | 1043.1 hPa | 0 mm | - | 281 W/m² | - |
| 1787857820 | 27.78° C | 67% | 1043.2 hPa | 0 mm | - | 295 W/m² | - |
| 1787857221 | 27.78° C | 65% | 1042.9 hPa | 0 mm | - | 616 W/m² | - |
| 1787856621 | 27.22° C | 66% | 1043.2 hPa | 0 mm | - | 173 W/m² | - |
| 1787856017 | 28.33° C | 65% | 1043.1 hPa | 0 mm | - | 245 W/m² | - |
| 1787855412 | 27.78° C | 68% | 1042.8 hPa | 0 mm | - | 243 W/m² | - |
| 1787854808 | 28.33° C | 68% | 1043.1 hPa | 0 mm | - | 365 W/m² | - |
| 1787854208 | 27.78° C | 68% | 1042.8 hPa | 0 mm | - | 240 W/m² | - |
| 1787853609 | 27.78° C | 68% | 1043.3 hPa | 0 mm | - | 774 W/m² | - |
| 1787853002 | 27.78° C | 67% | 1043.4 hPa | 0 mm | - | 756 W/m² | - |
| 1787852402 | 28.33° C | 69% | 1043.2 hPa | 0 mm | - | 684 W/m² | - |
| 1787851801 | 27.78° C | 68% | 1043.4 hPa | 0 mm | - | 744 W/m² | - |
| 1787851197 | 27.78° C | 68% | 1043.4 hPa | 0 mm | - | 737 W/m² | - |
| 1787850595 | 27.78° C | 68% | 1043.6 hPa | 0 mm | - | 759 W/m² | - |
| 1787849995 | 27.78° C | 71% | 1043.6 hPa | 0 mm | - | 722 W/m² | - |
| 1787849391 | 27.22° C | 71% | 1043.8 hPa | 0 mm | - | 748 W/m² | - |
| 1787848790 | 26.67° C | 73% | 1044 hPa | 0 mm | - | 783 W/m² | - |
| 1787848190 | 26.67° C | 72% | 1044.1 hPa | 0 mm | - | 464 W/m² | - |
| 1787847585 | 26.11° C | 72% | 1044.2 hPa | 0 mm | - | 806 W/m² | - |
| 1787846983 | 26.11° C | 72% | 1044 hPa | 0 mm | - | 367 W/m² | - |
| 1787846383 | 25.56° C | 74% | 1044 hPa | 0 mm | - | 717 W/m² | - |
| 1787845780 | 26.11° C | 74% | 1044.3 hPa | 0 mm | - | 506 W/m² | - |
| 1787845178 | 25.56° C | 76% | 1044.2 hPa | 0 mm | - | 646 W/m² | - |
| 1787844577 | 25.56° C | 76% | 1044.3 hPa | 0 mm | - | 609 W/m² | - |
| 1787843977 | 25.56° C | 77% | 1044 hPa | 0 mm | - | 513 W/m² | - |
* Rain latest hour (hover to see other rain measurements)
** Current wind speed in m/s (hover to see current wind gust speed)